sensor_id;sensor_type;location;lat;lon;timestamp;P1;durP1;ratioP1;P2;durP2;ratioP2
5805;SDS011;2929;50.810;8.342;2024-03-23T00:54:26;43.07;;;16.83;;
5805;SDS011;2929;50.810;8.342;2024-03-23T00:56:53;34.63;;;17.37;;
5805;SDS011;2929;50.810;8.342;2024-03-23T00:59:19;37.37;;;17.13;;
5805;SDS011;2929;50.810;8.342;2024-03-23T01:01:47;37.33;;;17.10;;
5805;SDS011;2929;50.810;8.342;2024-03-23T01:04:14;37.33;;;18.90;;
5805;SDS011;2929;50.810;8.342;2024-03-23T01:06:42;40.53;;;18.40;;
5805;SDS011;2929;50.810;8.342;2024-03-23T01:09:08;34.53;;;17.13;;
5805;SDS011;2929;50.810;8.342;2024-03-23T01:11:36;31.70;;;16.53;;
5805;SDS011;2929;50.810;8.342;2024-03-23T01:14:02;34.10;;;16.40;;
5805;SDS011;2929;50.810;8.342;2024-03-23T01:16:29;28.30;;;15.30;;
5805;SDS011;2929;50.810;8.342;2024-03-23T01:18:54;35.30;;;17.23;;
5805;SDS011;2929;50.810;8.342;2024-03-23T01:21:23;37.63;;;18.00;;
5805;SDS011;2929;50.810;8.342;2024-03-23T01:23:49;35.90;;;17.20;;
5805;SDS011;2929;50.810;8.342;2024-03-23T01:26:16;33.30;;;15.77;;
5805;SDS011;2929;50.810;8.342;2024-03-23T01:28:42;36.30;;;18.97;;
5805;SDS011;2929;50.810;8.342;2024-03-23T01:31:09;34.90;;;17.80;;
5805;SDS011;2929;50.810;8.342;2024-03-23T01:33:35;39.50;;;18.00;;
5805;SDS011;2929;50.810;8.342;2024-03-23T01:36:02;35.37;;;18.40;;
5805;SDS011;2929;50.810;8.342;2024-03-23T01:38:31;36.47;;;17.03;;
5805;SDS011;2929;50.810;8.342;2024-03-23T01:40:59;33.33;;;16.40;;
5805;SDS011;2929;50.810;8.342;2024-03-23T01:43:25;39.83;;;17.93;;
5805;SDS011;2929;50.810;8.342;2024-03-23T01:45:52;38.13;;;18.27;;
5805;SDS011;2929;50.810;8.342;2024-03-23T01:48:19;36.33;;;18.17;;
5805;SDS011;2929;50.810;8.342;2024-03-23T01:50:46;35.17;;;16.80;;
5805;SDS011;2929;50.810;8.342;2024-03-23T01:53:13;34.93;;;17.63;;
5805;SDS011;2929;50.810;8.342;2024-03-23T01:55:43;42.10;;;18.90;;
5805;SDS011;2929;50.810;8.342;2024-03-23T01:58:10;34.27;;;17.03;;
5805;SDS011;2929;50.810;8.342;2024-03-23T02:00:36;35.97;;;16.17;;
5805;SDS011;2929;50.810;8.342;2024-03-23T02:03:03;36.70;;;16.87;;
5805;SDS011;2929;50.810;8.342;2024-03-23T02:05:49;36.23;;;17.80;;
5805;SDS011;2929;50.810;8.342;2024-03-23T02:08:16;36.00;;;17.93;;
5805;SDS011;2929;50.810;8.342;2024-03-23T02:10:48;40.73;;;18.87;;
5805;SDS011;2929;50.810;8.342;2024-03-23T02:13:14;47.20;;;18.60;;
5805;SDS011;2929;50.810;8.342;2024-03-23T02:15:42;35.33;;;18.03;;
5805;SDS011;2929;50.810;8.342;2024-03-23T02:18:08;39.57;;;18.30;;
5805;SDS011;2929;50.810;8.342;2024-03-23T02:20:38;42.63;;;18.13;;
5805;SDS011;2929;50.810;8.342;2024-03-23T02:23:05;56.60;;;25.00;;
5805;SDS011;2929;50.810;8.342;2024-03-23T02:25:39;83.83;;;31.43;;
5805;SDS011;2929;50.810;8.342;2024-03-23T02:28:05;87.67;;;33.40;;
5805;SDS011;2929;50.810;8.342;2024-03-23T02:30:32;53.37;;;24.40;;
5805;SDS011;2929;50.810;8.342;2024-03-23T02:32:58;51.73;;;22.97;;
5805;SDS011;2929;50.810;8.342;2024-03-23T02:35:25;46.33;;;22.07;;
5805;SDS011;2929;50.810;8.342;2024-03-23T02:37:51;49.80;;;22.23;;
5805;SDS011;2929;50.810;8.342;2024-03-23T02:40:20;58.93;;;26.70;;
5805;SDS011;2929;50.810;8.342;2024-03-23T02:42:47;59.60;;;24.97;;
5805;SDS011;2929;50.810;8.342;2024-03-23T02:45:14;32.60;;;14.90;;
5805;SDS011;2929;50.810;8.342;2024-03-23T02:47:40;26.20;;;11.83;;
5805;SDS011;2929;50.810;8.342;2024-03-23T02:50:08;8.60;;;4.60;;
5805;SDS011;2929;50.810;8.342;2024-03-23T02:52:34;6.67;;;3.50;;
5805;SDS011;2929;50.810;8.342;2024-03-23T02:55:01;5.70;;;2.10;;
5805;SDS011;2929;50.810;8.342;2024-03-23T02:57:29;5.27;;;1.40;;
5805;SDS011;2929;50.810;8.342;2024-03-23T02:59:56;2.27;;;1.40;;
5805;SDS011;2929;50.810;8.342;2024-03-23T03:02:22;4.20;;;1.10;;
5805;SDS011;2929;50.810;8.342;2024-03-23T03:04:49;1.83;;;0.97;;
5805;SDS011;2929;50.810;8.342;2024-03-23T03:07:15;1.33;;;0.80;;
5805;SDS011;2929;50.810;8.342;2024-03-23T03:09:42;0.77;;;0.73;;
5805;SDS011;2929;50.810;8.342;2024-03-23T03:12:08;1.07;;;0.97;;
5805;SDS011;2929;50.810;8.342;2024-03-23T03:14:37;0.90;;;0.80;;
5805;SDS011;2929;50.810;8.342;2024-03-23T03:17:03;1.47;;;1.03;;
5805;SDS011;2929;50.810;8.342;2024-03-23T03:19:30;0.67;;;0.57;;
5805;SDS011;2929;50.810;8.342;2024-03-23T03:21:56;1.20;;;0.83;;
5805;SDS011;2929;50.810;8.342;2024-03-23T03:24:23;1.60;;;0.83;;
5805;SDS011;2929;50.810;8.342;2024-03-23T03:26:49;0.80;;;0.67;;
5805;SDS011;2929;50.810;8.342;2024-03-23T03:29:16;0.60;;;0.60;;
5805;SDS011;2929;50.810;8.342;2024-03-23T03:31:43;0.90;;;0.70;;
5805;SDS011;2929;50.810;8.342;2024-03-23T03:34:12;1.60;;;0.80;;
5805;SDS011;2929;50.810;8.342;2024-03-23T03:36:37;2.40;;;0.70;;
5805;SDS011;2929;50.810;8.342;2024-03-23T03:39:04;1.20;;;0.73;;
5805;SDS011;2929;50.810;8.342;2024-03-23T03:41:31;6.90;;;0.70;;
5805;SDS011;2929;50.810;8.342;2024-03-23T03:43:58;0.60;;;0.60;;
5805;SDS011;2929;50.810;8.342;2024-03-23T03:46:27;0.70;;;0.57;;
5805;SDS011;2929;50.810;8.342;2024-03-23T03:48:56;0.60;;;0.60;;
5805;SDS011;2929;50.810;8.342;2024-03-23T03:51:22;0.60;;;0.60;;
5805;SDS011;2929;50.810;8.342;2024-03-23T03:53:49;1.07;;;0.67;;
5805;SDS011;2929;50.810;8.342;2024-03-23T03:56:16;0.80;;;0.70;;
5805;SDS011;2929;50.810;8.342;2024-03-23T03:58:43;0.60;;;0.60;;
5805;SDS011;2929;50.810;8.342;2024-03-23T04:01:09;0.70;;;0.70;;
5805;SDS011;2929;50.810;8.342;2024-03-23T04:03:36;2.93;;;0.70;;
5805;SDS011;2929;50.810;8.342;2024-03-23T04:06:03;0.60;;;0.50;;
5805;SDS011;2929;50.810;8.342;2024-03-23T04:08:30;0.83;;;0.67;;
5805;SDS011;2929;50.810;8.342;2024-03-23T04:10:56;1.37;;;0.70;;
5805;SDS011;2929;50.810;8.342;2024-03-23T04:13:23;0.50;;;0.50;;
5805;SDS011;2929;50.810;8.342;2024-03-23T04:15:53;0.60;;;0.60;;
5805;SDS011;2929;50.810;8.342;2024-03-23T04:18:20;1.80;;;0.60;;
5805;SDS011;2929;50.810;8.342;2024-03-23T04:20:46;0.50;;;0.50;;
5805;SDS011;2929;50.810;8.342;2024-03-23T04:23:15;0.70;;;0.70;;
5805;SDS011;2929;50.810;8.342;2024-03-23T04:25:41;0.70;;;0.50;;
5805;SDS011;2929;50.810;8.342;2024-03-23T04:28:08;0.70;;;0.60;;
5805;SDS011;2929;50.810;8.342;2024-03-23T04:30:34;0.70;;;0.70;;
5805;SDS011;2929;50.810;8.342;2024-03-23T04:33:02;1.07;;;0.70;;
5805;SDS011;2929;50.810;8.342;2024-03-23T04:35:28;0.60;;;0.60;;
5805;SDS011;2929;50.810;8.342;2024-03-23T04:37:55;0.50;;;0.50;;
5805;SDS011;2929;50.810;8.342;2024-03-23T04:40:25;0.90;;;0.57;;
5805;SDS011;2929;50.810;8.342;2024-03-23T04:42:52;0.50;;;0.50;;
5805;SDS011;2929;50.810;8.342;2024-03-23T04:45:19;0.70;;;0.60;;
5805;SDS011;2929;50.810;8.342;2024-03-23T04:47:48;0.70;;;0.70;;
5805;SDS011;2929;50.810;8.342;2024-03-23T04:50:15;0.47;;;0.47;;
5805;SDS011;2929;50.810;8.342;2024-03-23T04:52:42;0.53;;;0.53;;
5805;SDS011;2929;50.810;8.342;2024-03-23T04:55:09;3.33;;;0.60;;
5805;SDS011;2929;50.810;8.342;2024-03-23T04:57:38;0.60;;;0.50;;
5805;SDS011;2929;50.810;8.342;2024-03-23T05:00:05;0.60;;;0.60;;
5805;SDS011;2929;50.810;8.342;2024-03-23T05:02:42;0.77;;;0.70;;
5805;SDS011;2929;50.810;8.342;2024-03-23T05:05:09;1.00;;;0.60;;
5805;SDS011;2929;50.810;8.342;2024-03-23T05:07:36;0.87;;;0.70;;
5805;SDS011;2929;50.810;8.342;2024-03-23T05:10:02;0.50;;;0.50;;
5805;SDS011;2929;50.810;8.342;2024-03-23T05:12:29;0.60;;;0.60;;
5805;SDS011;2929;50.810;8.342;2024-03-23T05:14:57;0.60;;;0.60;;
5805;SDS011;2929;50.810;8.342;2024-03-23T05:17:24;0.63;;;0.63;;
5805;SDS011;2929;50.810;8.342;2024-03-23T05:19:50;1.37;;;0.70;;
5805;SDS011;2929;50.810;8.342;2024-03-23T05:22:17;0.50;;;0.50;;
5805;SDS011;2929;50.810;8.342;2024-03-23T05:24:44;1.83;;;0.60;;
5805;SDS011;2929;50.810;8.342;2024-03-23T05:27:11;1.17;;;0.70;;
5805;SDS011;2929;50.810;8.342;2024-03-23T05:29:37;1.23;;;0.60;;
5805;SDS011;2929;50.810;8.342;2024-03-23T05:32:07;1.07;;;0.57;;
5805;SDS011;2929;50.810;8.342;2024-03-23T05:37:11;1.10;;;0.70;;
5805;SDS011;2929;50.810;8.342;2024-03-23T05:39:37;0.70;;;0.70;;
5805;SDS011;2929;50.810;8.342;2024-03-23T05:42:04;0.83;;;0.83;;
5805;SDS011;2929;50.810;8.342;2024-03-23T05:44:30;1.07;;;0.70;;
5805;SDS011;2929;50.810;8.342;2024-03-23T05:46:57;0.80;;;0.60;;
5805;SDS011;2929;50.810;8.342;2024-03-23T05:49:25;1.63;;;0.83;;
5805;SDS011;2929;50.810;8.342;2024-03-23T05:51:52;2.63;;;0.90;;
5805;SDS011;2929;50.810;8.342;2024-03-23T05:54:20;3.03;;;0.97;;
5805;SDS011;2929;50.810;8.342;2024-03-23T05:56:47;1.23;;;0.63;;
5805;SDS011;2929;50.810;8.342;2024-03-23T05:59:14;1.50;;;0.70;;
5805;SDS011;2929;50.810;8.342;2024-03-23T06:01:41;1.43;;;1.00;;
5805;SDS011;2929;50.810;8.342;2024-03-23T06:04:07;2.10;;;0.90;;
5805;SDS011;2929;50.810;8.342;2024-03-23T06:06:36;2.20;;;0.80;;
5805;SDS011;2929;50.810;8.342;2024-03-23T06:09:02;4.40;;;1.20;;
5805;SDS011;2929;50.810;8.342;2024-03-23T06:11:30;2.67;;;1.33;;
5805;SDS011;2929;50.810;8.342;2024-03-23T06:13:56;4.37;;;1.50;;
5805;SDS011;2929;50.810;8.342;2024-03-23T06:16:23;3.00;;;1.43;;
5805;SDS011;2929;50.810;8.342;2024-03-23T06:18:49;1.97;;;1.13;;
5805;SDS011;2929;50.810;8.342;2024-03-23T06:21:18;3.73;;;1.30;;
5805;SDS011;2929;50.810;8.342;2024-03-23T06:23:46;3.23;;;1.50;;
5805;SDS011;2929;50.810;8.342;2024-03-23T06:26:16;3.10;;;1.20;;
5805;SDS011;2929;50.810;8.342;2024-03-23T06:28:42;2.23;;;1.50;;
5805;SDS011;2929;50.810;8.342;2024-03-23T06:31:11;9.10;;;1.53;;
5805;SDS011;2929;50.810;8.342;2024-03-23T06:33:37;4.03;;;1.43;;
5805;SDS011;2929;50.810;8.342;2024-03-23T06:36:05;4.57;;;1.33;;
5805;SDS011;2929;50.810;8.342;2024-03-23T06:38:32;3.80;;;1.60;;
5805;SDS011;2929;50.810;8.342;2024-03-23T06:41:02;6.03;;;1.13;;
5805;SDS011;2929;50.810;8.342;2024-03-23T06:43:28;4.47;;;1.00;;
5805;SDS011;2929;50.810;8.342;2024-03-23T06:45:55;2.30;;;1.10;;
5805;SDS011;2929;50.810;8.342;2024-03-23T06:48:22;5.23;;;2.10;;
5805;SDS011;2929;50.810;8.342;2024-03-23T06:50:49;3.23;;;1.30;;
5805;SDS011;2929;50.810;8.342;2024-03-23T06:53:16;4.83;;;1.43;;
5805;SDS011;2929;50.810;8.342;2024-03-23T06:55:43;6.43;;;1.33;;
5805;SDS011;2929;50.810;8.342;2024-03-23T06:58:17;4.97;;;1.60;;
5805;SDS011;2929;50.810;8.342;2024-03-23T07:00:44;4.70;;;1.70;;
5805;SDS011;2929;50.810;8.342;2024-03-23T07:03:11;5.07;;;2.30;;
5805;SDS011;2929;50.810;8.342;2024-03-23T07:05:38;5.17;;;2.30;;
5805;SDS011;2929;50.810;8.342;2024-03-23T07:08:05;4.73;;;2.60;;
5805;SDS011;2929;50.810;8.342;2024-03-23T07:10:32;12.27;;;2.93;;
5805;SDS011;2929;50.810;8.342;2024-03-23T07:12:58;10.00;;;2.73;;
5805;SDS011;2929;50.810;8.342;2024-03-23T07:15:27;5.57;;;2.50;;
5805;SDS011;2929;50.810;8.342;2024-03-23T07:17:53;11.90;;;3.50;;
5805;SDS011;2929;50.810;8.342;2024-03-23T07:20:21;11.00;;;3.10;;
5805;SDS011;2929;50.810;8.342;2024-03-23T07:22:47;8.47;;;3.10;;
5805;SDS011;2929;50.810;8.342;2024-03-23T07:25:15;12.57;;;3.40;;
5805;SDS011;2929;50.810;8.342;2024-03-23T07:27:42;7.87;;;3.70;;
5805;SDS011;2929;50.810;8.342;2024-03-23T07:30:09;11.80;;;4.60;;
5805;SDS011;2929;50.810;8.342;2024-03-23T07:32:37;8.90;;;4.00;;
5805;SDS011;2929;50.810;8.342;2024-03-23T07:35:04;9.47;;;5.80;;
5805;SDS011;2929;50.810;8.342;2024-03-23T07:37:32;13.83;;;4.37;;
5805;SDS011;2929;50.810;8.342;2024-03-23T07:39:59;12.43;;;3.43;;
5805;SDS011;2929;50.810;8.342;2024-03-23T07:42:25;7.80;;;3.70;;
5805;SDS011;2929;50.810;8.342;2024-03-23T07:44:52;9.27;;;4.77;;
5805;SDS011;2929;50.810;8.342;2024-03-23T07:47:22;10.13;;;5.23;;
5805;SDS011;2929;50.810;8.342;2024-03-23T07:49:51;15.23;;;5.23;;
5805;SDS011;2929;50.810;8.342;2024-03-23T07:52:17;16.07;;;3.73;;
5805;SDS011;2929;50.810;8.342;2024-03-23T07:54:45;11.43;;;4.20;;
5805;SDS011;2929;50.810;8.342;2024-03-23T07:57:11;10.80;;;3.67;;
5805;SDS011;2929;50.810;8.342;2024-03-23T07:59:39;9.80;;;4.07;;
5805;SDS011;2929;50.810;8.342;2024-03-23T08:02:05;9.93;;;4.50;;
5805;SDS011;2929;50.810;8.342;2024-03-23T08:04:34;13.07;;;5.20;;
5805;SDS011;2929;50.810;8.342;2024-03-23T08:07:02;8.63;;;4.33;;
5805;SDS011;2929;50.810;8.342;2024-03-23T08:09:30;13.43;;;4.67;;
5805;SDS011;2929;50.810;8.342;2024-03-23T08:11:56;21.70;;;6.10;;
5805;SDS011;2929;50.810;8.342;2024-03-23T08:14:24;15.60;;;5.40;;
5805;SDS011;2929;50.810;8.342;2024-03-23T08:16:50;12.07;;;4.50;;
5805;SDS011;2929;50.810;8.342;2024-03-23T08:19:18;13.50;;;5.13;;
5805;SDS011;2929;50.810;8.342;2024-03-23T08:21:48;11.50;;;5.00;;
5805;SDS011;2929;50.810;8.342;2024-03-23T08:24:18;20.67;;;4.80;;
5805;SDS011;2929;50.810;8.342;2024-03-23T08:26:45;16.60;;;4.50;;
5805;SDS011;2929;50.810;8.342;2024-03-23T08:29:12;11.90;;;5.50;;
5805;SDS011;2929;50.810;8.342;2024-03-23T08:31:40;13.40;;;5.70;;
5805;SDS011;2929;50.810;8.342;2024-03-23T08:34:07;11.60;;;5.57;;
5805;SDS011;2929;50.810;8.342;2024-03-23T08:36:36;12.70;;;5.83;;
5805;SDS011;2929;50.810;8.342;2024-03-23T08:39:10;18.83;;;5.87;;
5805;SDS011;2929;50.810;8.342;2024-03-23T08:41:39;16.10;;;5.77;;
5805;SDS011;2929;50.810;8.342;2024-03-23T08:44:05;19.07;;;5.67;;
5805;SDS011;2929;50.810;8.342;2024-03-23T08:46:32;12.50;;;5.40;;
5805;SDS011;2929;50.810;8.342;2024-03-23T08:48:59;15.90;;;5.40;;
5805;SDS011;2929;50.810;8.342;2024-03-23T08:51:30;8.30;;;4.70;;
5805;SDS011;2929;50.810;8.342;2024-03-23T08:53:58;11.60;;;4.90;;
5805;SDS011;2929;50.810;8.342;2024-03-23T08:56:26;19.10;;;4.13;;
5805;SDS011;2929;50.810;8.342;2024-03-23T08:58:53;9.27;;;3.90;;
5805;SDS011;2929;50.810;8.342;2024-03-23T09:01:20;9.90;;;3.40;;
5805;SDS011;2929;50.810;8.342;2024-03-23T09:03:47;17.43;;;4.50;;
5805;SDS011;2929;50.810;8.342;2024-03-23T09:06:14;11.70;;;3.80;;
5805;SDS011;2929;50.810;8.342;2024-03-23T09:08:42;13.87;;;4.43;;
5805;SDS011;2929;50.810;8.342;2024-03-23T09:11:11;13.27;;;4.10;;
5805;SDS011;2929;50.810;8.342;2024-03-23T09:13:37;6.60;;;3.40;;
5805;SDS011;2929;50.810;8.342;2024-03-23T09:16:06;16.00;;;4.27;;
5805;SDS011;2929;50.810;8.342;2024-03-23T09:18:34;10.83;;;3.90;;
5805;SDS011;2929;50.810;8.342;2024-03-23T09:21:02;17.33;;;3.93;;
5805;SDS011;2929;50.810;8.342;2024-03-23T09:23:29;11.67;;;4.00;;
5805;SDS011;2929;50.810;8.342;2024-03-23T09:25:56;6.00;;;3.20;;
5805;SDS011;2929;50.810;8.342;2024-03-23T09:28:23;9.30;;;4.13;;
5805;SDS011;2929;50.810;8.342;2024-03-23T09:30:50;9.87;;;3.30;;
5805;SDS011;2929;50.810;8.342;2024-03-23T09:33:19;9.03;;;3.13;;
5805;SDS011;2929;50.810;8.342;2024-03-23T09:35:48;11.70;;;3.57;;
5805;SDS011;2929;50.810;8.342;2024-03-23T09:38:15;11.93;;;3.47;;
5805;SDS011;2929;50.810;8.342;2024-03-23T09:40:46;8.03;;;2.93;;
5805;SDS011;2929;50.810;8.342;2024-03-23T09:43:18;11.00;;;4.00;;
5805;SDS011;2929;50.810;8.342;2024-03-23T09:45:48;5.40;;;3.20;;
5805;SDS011;2929;50.810;8.342;2024-03-23T09:48:15;12.10;;;3.33;;
5805;SDS011;2929;50.810;8.342;2024-03-23T09:50:44;11.33;;;3.00;;
5805;SDS011;2929;50.810;8.342;2024-03-23T09:53:11;9.30;;;2.90;;
5805;SDS011;2929;50.810;8.342;2024-03-23T09:55:40;9.23;;;3.90;;
5805;SDS011;2929;50.810;8.342;2024-03-23T09:58:08;13.83;;;4.90;;
5805;SDS011;2929;50.810;8.342;2024-03-23T10:00:35;11.17;;;3.10;;
5805;SDS011;2929;50.810;8.342;2024-03-23T10:03:02;13.10;;;5.10;;
5805;SDS011;2929;50.810;8.342;2024-03-23T10:05:30;8.50;;;2.90;;
5805;SDS011;2929;50.810;8.342;2024-03-23T10:07:58;8.77;;;3.20;;
5805;SDS011;2929;50.810;8.342;2024-03-23T10:10:26;13.10;;;3.33;;
5805;SDS011;2929;50.810;8.342;2024-03-23T10:12:52;11.37;;;2.73;;
5805;SDS011;2929;50.810;8.342;2024-03-23T10:15:20;8.97;;;2.80;;
5805;SDS011;2929;50.810;8.342;2024-03-23T10:17:46;6.63;;;2.50;;
5805;SDS011;2929;50.810;8.342;2024-03-23T10:20:19;7.13;;;2.67;;
5805;SDS011;2929;50.810;8.342;2024-03-23T10:23:04;11.40;;;2.67;;
5805;SDS011;2929;50.810;8.342;2024-03-23T10:25:31;6.43;;;2.57;;
5805;SDS011;2929;50.810;8.342;2024-03-23T10:28:01;8.23;;;2.40;;
5805;SDS011;2929;50.810;8.342;2024-03-23T10:30:29;7.20;;;2.50;;
5805;SDS011;2929;50.810;8.342;2024-03-23T10:33:06;8.30;;;2.90;;
5805;SDS011;2929;50.810;8.342;2024-03-23T10:35:34;8.80;;;2.40;;
5805;SDS011;2929;50.810;8.342;2024-03-23T10:38:00;7.90;;;2.50;;
5805;SDS011;2929;50.810;8.342;2024-03-23T10:40:30;11.60;;;3.47;;
5805;SDS011;2929;50.810;8.342;2024-03-23T10:42:58;7.10;;;2.67;;
5805;SDS011;2929;50.810;8.342;2024-03-23T10:45:29;5.00;;;2.10;;
5805;SDS011;2929;50.810;8.342;2024-03-23T10:48:01;13.40;;;3.63;;
5805;SDS011;2929;50.810;8.342;2024-03-23T10:50:28;5.20;;;2.47;;
5805;SDS011;2929;50.810;8.342;2024-03-23T10:52:55;12.40;;;2.27;;
5805;SDS011;2929;50.810;8.342;2024-03-23T10:55:25;9.40;;;2.30;;
5805;SDS011;2929;50.810;8.342;2024-03-23T10:57:54;6.50;;;2.40;;
5805;SDS011;2929;50.810;8.342;2024-03-23T11:00:21;7.47;;;2.40;;
5805;SDS011;2929;50.810;8.342;2024-03-23T11:02:48;4.00;;;2.00;;
5805;SDS011;2929;50.810;8.342;2024-03-23T11:05:28;13.10;;;2.60;;
5805;SDS011;2929;50.810;8.342;2024-03-23T11:07:55;6.10;;;1.30;;
5805;SDS011;2929;50.810;8.342;2024-03-23T11:10:26;2.40;;;1.00;;
5805;SDS011;2929;50.810;8.342;2024-03-23T11:15:47;5.50;;;1.47;;
5805;SDS011;2929;50.810;8.342;2024-03-23T11:18:19;6.67;;;1.50;;
5805;SDS011;2929;50.810;8.342;2024-03-23T11:20:47;2.90;;;1.50;;
5805;SDS011;2929;50.810;8.342;2024-03-23T11:23:25;2.60;;;1.50;;
5805;SDS011;2929;50.810;8.342;2024-03-23T11:25:54;3.40;;;1.60;;
5805;SDS011;2929;50.810;8.342;2024-03-23T11:28:21;6.23;;;1.80;;
5805;SDS011;2929;50.810;8.342;2024-03-23T11:30:49;7.13;;;2.40;;
5805;SDS011;2929;50.810;8.342;2024-03-23T11:33:16;4.87;;;1.53;;
5805;SDS011;2929;50.810;8.342;2024-03-23T11:35:43;9.77;;;2.00;;
5805;SDS011;2929;50.810;8.342;2024-03-23T11:38:10;3.43;;;2.07;;
5805;SDS011;2929;50.810;8.342;2024-03-23T11:40:38;7.20;;;1.90;;
5805;SDS011;2929;50.810;8.342;2024-03-23T11:43:06;3.37;;;1.93;;
5805;SDS011;2929;50.810;8.342;2024-03-23T11:45:39;6.07;;;2.30;;
5805;SDS011;2929;50.810;8.342;2024-03-23T11:48:21;4.03;;;2.60;;
5805;SDS011;2929;50.810;8.342;2024-03-23T11:50:50;5.50;;;2.23;;
5805;SDS011;2929;50.810;8.342;2024-03-23T11:53:18;6.33;;;2.50;;
5805;SDS011;2929;50.810;8.342;2024-03-23T11:55:46;3.90;;;1.70;;
5805;SDS011;2929;50.810;8.342;2024-03-23T11:58:13;8.03;;;1.87;;
5805;SDS011;2929;50.810;8.342;2024-03-23T12:00:40;5.10;;;1.97;;
5805;SDS011;2929;50.810;8.342;2024-03-23T12:03:07;6.20;;;1.70;;
5805;SDS011;2929;50.810;8.342;2024-03-23T12:05:36;7.53;;;2.03;;
5805;SDS011;2929;50.810;8.342;2024-03-23T12:08:22;6.30;;;1.73;;
5805;SDS011;2929;50.810;8.342;2024-03-23T12:10:50;8.23;;;1.60;;
5805;SDS011;2929;50.810;8.342;2024-03-23T12:13:18;3.57;;;1.00;;
5805;SDS011;2929;50.810;8.342;2024-03-23T12:15:45;3.03;;;1.20;;
5805;SDS011;2929;50.810;8.342;2024-03-23T12:18:13;1.73;;;1.27;;
5805;SDS011;2929;50.810;8.342;2024-03-23T12:20:42;6.43;;;1.70;;
5805;SDS011;2929;50.810;8.342;2024-03-23T12:23:08;4.73;;;1.80;;
5805;SDS011;2929;50.810;8.342;2024-03-23T12:25:38;2.10;;;1.80;;
5805;SDS011;2929;50.810;8.342;2024-03-23T12:28:05;4.77;;;1.87;;
5805;SDS011;2929;50.810;8.342;2024-03-23T12:30:35;6.93;;;1.80;;
5805;SDS011;2929;50.810;8.342;2024-03-23T12:33:02;10.20;;;1.37;;
5805;SDS011;2929;50.810;8.342;2024-03-23T12:35:29;7.87;;;1.57;;
5805;SDS011;2929;50.810;8.342;2024-03-23T12:37:57;1.93;;;1.30;;
5805;SDS011;2929;50.810;8.342;2024-03-23T12:40:24;3.13;;;1.23;;
5805;SDS011;2929;50.810;8.342;2024-03-23T12:42:51;8.13;;;1.30;;
5805;SDS011;2929;50.810;8.342;2024-03-23T12:45:19;8.80;;;1.27;;
5805;SDS011;2929;50.810;8.342;2024-03-23T12:47:45;3.93;;;1.30;;
5805;SDS011;2929;50.810;8.342;2024-03-23T12:50:13;2.73;;;1.23;;
5805;SDS011;2929;50.810;8.342;2024-03-23T12:52:39;4.93;;;1.50;;
5805;SDS011;2929;50.810;8.342;2024-03-23T12:55:08;3.33;;;1.50;;
5805;SDS011;2929;50.810;8.342;2024-03-23T12:57:34;5.20;;;1.70;;
5805;SDS011;2929;50.810;8.342;2024-03-23T13:00:02;4.50;;;1.40;;
5805;SDS011;2929;50.810;8.342;2024-03-23T13:02:29;7.40;;;1.87;;
5805;SDS011;2929;50.810;8.342;2024-03-23T13:04:57;0.70;;;0.70;;
5805;SDS011;2929;50.810;8.342;2024-03-23T13:07:23;4.53;;;1.67;;
5805;SDS011;2929;50.810;8.342;2024-03-23T13:09:51;1.13;;;0.90;;
5805;SDS011;2929;50.810;8.342;2024-03-23T13:12:20;3.93;;;1.90;;
5805;SDS011;2929;50.810;8.342;2024-03-23T13:14:47;1.57;;;1.00;;
5805;SDS011;2929;50.810;8.342;2024-03-23T13:17:13;1.10;;;1.00;;
5805;SDS011;2929;50.810;8.342;2024-03-23T13:19:41;2.80;;;1.30;;
5805;SDS011;2929;50.810;8.342;2024-03-23T13:22:07;2.10;;;0.50;;
5805;SDS011;2929;50.810;8.342;2024-03-23T13:24:37;4.20;;;1.40;;
5805;SDS011;2929;50.810;8.342;2024-03-23T13:27:03;1.30;;;1.00;;
5805;SDS011;2929;50.810;8.342;2024-03-23T13:29:34;2.40;;;1.07;;
5805;SDS011;2929;50.810;8.342;2024-03-23T13:32:00;4.07;;;1.57;;
5805;SDS011;2929;50.810;8.342;2024-03-23T13:34:28;4.90;;;1.47;;
5805;SDS011;2929;50.810;8.342;2024-03-23T13:36:54;1.40;;;1.07;;
5805;SDS011;2929;50.810;8.342;2024-03-23T13:39:23;6.63;;;1.50;;
5805;SDS011;2929;50.810;8.342;2024-03-23T13:41:49;3.13;;;1.40;;
5805;SDS011;2929;50.810;8.342;2024-03-23T13:44:17;1.23;;;0.90;;
5805;SDS011;2929;50.810;8.342;2024-03-23T13:46:44;3.60;;;1.20;;
5805;SDS011;2929;50.810;8.342;2024-03-23T13:49:18;3.30;;;1.10;;
5805;SDS011;2929;50.810;8.342;2024-03-23T13:51:46;3.00;;;1.47;;
5805;SDS011;2929;50.810;8.342;2024-03-23T13:54:14;2.30;;;1.33;;
5805;SDS011;2929;50.810;8.342;2024-03-23T13:56:40;4.07;;;1.40;;
5805;SDS011;2929;50.810;8.342;2024-03-23T13:59:07;4.50;;;1.83;;
5805;SDS011;2929;50.810;8.342;2024-03-23T14:01:34;4.33;;;1.70;;
5805;SDS011;2929;50.810;8.342;2024-03-23T14:04:02;3.60;;;1.63;;
5805;SDS011;2929;50.810;8.342;2024-03-23T14:06:29;1.20;;;1.10;;
5805;SDS011;2929;50.810;8.342;2024-03-23T14:08:56;4.77;;;1.50;;
5805;SDS011;2929;50.810;8.342;2024-03-23T14:11:22;4.50;;;2.00;;
5805;SDS011;2929;50.810;8.342;2024-03-23T14:13:51;2.30;;;1.40;;
5805;SDS011;2929;50.810;8.342;2024-03-23T14:16:18;3.60;;;1.40;;
5805;SDS011;2929;50.810;8.342;2024-03-23T14:18:46;4.87;;;1.53;;
5805;SDS011;2929;50.810;8.342;2024-03-23T14:21:14;4.53;;;1.80;;
5805;SDS011;2929;50.810;8.342;2024-03-23T14:23:42;4.70;;;1.97;;
5805;SDS011;2929;50.810;8.342;2024-03-23T14:26:08;3.93;;;2.07;;
5805;SDS011;2929;50.810;8.342;2024-03-23T14:28:36;13.20;;;2.50;;
5805;SDS011;2929;50.810;8.342;2024-03-23T14:31:02;2.43;;;1.60;;
5805;SDS011;2929;50.810;8.342;2024-03-23T14:33:35;4.07;;;1.70;;
5805;SDS011;2929;50.810;8.342;2024-03-23T14:36:03;4.03;;;2.27;;
5805;SDS011;2929;50.810;8.342;2024-03-23T14:38:31;2.70;;;2.50;;
5805;SDS011;2929;50.810;8.342;2024-03-23T14:40:58;4.13;;;1.80;;
5805;SDS011;2929;50.810;8.342;2024-03-23T14:43:26;4.97;;;1.77;;
5805;SDS011;2929;50.810;8.342;2024-03-23T14:46:08;5.30;;;2.07;;
5805;SDS011;2929;50.810;8.342;2024-03-23T14:48:37;3.10;;;2.10;;
5805;SDS011;2929;50.810;8.342;2024-03-23T14:51:04;4.67;;;2.10;;
5805;SDS011;2929;50.810;8.342;2024-03-23T14:53:36;7.10;;;2.30;;
5805;SDS011;2929;50.810;8.342;2024-03-23T14:56:04;3.50;;;2.60;;
5805;SDS011;2929;50.810;8.342;2024-03-23T14:58:32;9.33;;;2.40;;
5805;SDS011;2929;50.810;8.342;2024-03-23T15:01:00;12.43;;;2.17;;
5805;SDS011;2929;50.810;8.342;2024-03-23T15:03:27;6.40;;;2.20;;
5805;SDS011;2929;50.810;8.342;2024-03-23T15:05:55;6.50;;;1.97;;
5805;SDS011;2929;50.810;8.342;2024-03-23T15:08:22;2.50;;;1.70;;
5805;SDS011;2929;50.810;8.342;2024-03-23T15:10:51;4.37;;;1.70;;
5805;SDS011;2929;50.810;8.342;2024-03-23T15:13:17;5.43;;;1.60;;
5805;SDS011;2929;50.810;8.342;2024-03-23T15:15:48;7.87;;;1.63;;
5805;SDS011;2929;50.810;8.342;2024-03-23T15:18:14;4.20;;;1.70;;
5805;SDS011;2929;50.810;8.342;2024-03-23T15:20:51;10.53;;;2.10;;
5805;SDS011;2929;50.810;8.342;2024-03-23T15:23:20;5.03;;;2.10;;
5805;SDS011;2929;50.810;8.342;2024-03-23T15:25:58;3.97;;;1.97;;
5805;SDS011;2929;50.810;8.342;2024-03-23T15:28:26;5.53;;;2.10;;
5805;SDS011;2929;50.810;8.342;2024-03-23T15:31:13;4.50;;;2.13;;
5805;SDS011;2929;50.810;8.342;2024-03-23T15:33:47;7.13;;;1.60;;
5805;SDS011;2929;50.810;8.342;2024-03-23T15:36:13;3.57;;;1.43;;
5805;SDS011;2929;50.810;8.342;2024-03-23T15:38:41;4.30;;;1.53;;
5805;SDS011;2929;50.810;8.342;2024-03-23T15:41:09;3.67;;;1.70;;
5805;SDS011;2929;50.810;8.342;2024-03-23T15:43:37;10.43;;;2.33;;
5805;SDS011;2929;50.810;8.342;2024-03-23T15:46:06;10.33;;;3.10;;
5805;SDS011;2929;50.810;8.342;2024-03-23T15:48:36;4.60;;;2.00;;
5805;SDS011;2929;50.810;8.342;2024-03-23T15:51:04;3.93;;;2.20;;
5805;SDS011;2929;50.810;8.342;2024-03-23T15:53:33;1.43;;;1.07;;
5805;SDS011;2929;50.810;8.342;2024-03-23T15:55:59;5.07;;;1.10;;
5805;SDS011;2929;50.810;8.342;2024-03-23T15:58:29;2.60;;;1.23;;
5805;SDS011;2929;50.810;8.342;2024-03-23T16:00:58;1.53;;;1.23;;
5805;SDS011;2929;50.810;8.342;2024-03-23T16:03:29;2.80;;;1.40;;
5805;SDS011;2929;50.810;8.342;2024-03-23T16:05:59;2.03;;;1.27;;
5805;SDS011;2929;50.810;8.342;2024-03-23T16:08:27;4.03;;;1.30;;
5805;SDS011;2929;50.810;8.342;2024-03-23T16:10:54;1.00;;;1.00;;
5805;SDS011;2929;50.810;8.342;2024-03-23T16:13:21;0.90;;;0.90;;